createdAt,value
2023-10-23T00:00:33.553Z,9.96
2023-10-23T00:03:01.265Z,9.88
2023-10-23T00:05:30.472Z,9.89
2023-10-23T00:07:58.234Z,9.88
2023-10-23T00:10:25.929Z,9.77
2023-10-23T00:12:53.707Z,9.80
2023-10-23T00:15:21.548Z,9.79
2023-10-23T00:17:49.299Z,9.72
2023-10-23T00:20:17.107Z,9.61
2023-10-23T00:22:46.322Z,9.55
2023-10-23T00:25:13.984Z,9.49
2023-10-23T00:27:41.682Z,9.50
2023-10-23T00:30:10.257Z,9.46
2023-10-23T00:32:38.012Z,9.52
2023-10-23T00:35:07.043Z,9.48
2023-10-23T00:37:36.494Z,9.41
2023-10-23T00:40:06.022Z,9.35
2023-10-23T00:42:33.661Z,9.40
2023-10-23T00:45:01.300Z,9.35
2023-10-23T00:47:28.993Z,9.32
2023-10-23T00:49:58.721Z,9.32
2023-10-23T00:52:27.446Z,9.21
2023-10-23T00:54:56.111Z,9.23
2023-10-23T00:57:25.400Z,9.24
2023-10-23T00:59:53.368Z,9.20
2023-10-23T01:02:21.152Z,9.23
2023-10-23T01:04:49.094Z,9.20
2023-10-23T01:07:16.690Z,9.15
2023-10-23T01:09:44.429Z,9.12
2023-10-23T01:12:12.067Z,9.13
2023-10-23T01:14:41.079Z,9.20
2023-10-23T01:17:09.109Z,9.15
2023-10-23T01:19:36.799Z,9.16
2023-10-23T01:22:04.613Z,9.15
2023-10-23T01:24:35.009Z,9.14
2023-10-23T01:27:04.244Z,9.17
2023-10-23T01:29:31.924Z,9.07
2023-10-23T01:31:59.657Z,9.04
2023-10-23T01:34:27.230Z,9.13
2023-10-23T01:36:55.031Z,9.11
2023-10-23T01:39:23.489Z,9.10
2023-10-23T01:41:51.204Z,9.06
2023-10-23T01:44:22.394Z,9.07
2023-10-23T01:46:50.138Z,9.06
2023-10-23T01:49:17.968Z,9.00
2023-10-23T01:51:46.107Z,8.94
2023-10-23T01:54:13.838Z,8.89
2023-10-23T01:56:42.812Z,8.86
2023-10-23T01:59:10.496Z,8.79
2023-10-23T02:01:41.029Z,8.72
2023-10-23T02:04:09.240Z,8.70
2023-10-23T02:06:37.027Z,8.68
2023-10-23T02:09:05.115Z,8.66
2023-10-23T02:11:33.149Z,8.64
2023-10-23T02:14:00.914Z,8.56
2023-10-23T02:16:28.829Z,8.44
2023-10-23T02:18:58.148Z,8.42
2023-10-23T02:21:27.098Z,8.37
2023-10-23T02:23:57.031Z,8.32
2023-10-23T02:26:26.275Z,8.43
2023-10-23T02:28:54.491Z,8.45
2023-10-23T02:31:24.809Z,8.42
2023-10-23T02:33:52.964Z,8.30
2023-10-23T02:36:22.008Z,8.35
2023-10-23T02:38:49.824Z,8.27
2023-10-23T02:41:17.593Z,8.27
2023-10-23T02:43:46.937Z,8.24
2023-10-23T02:46:15.345Z,8.24
2023-10-23T02:48:43.680Z,8.09
2023-10-23T02:51:11.623Z,8.10
2023-10-23T02:53:40.957Z,8.19
2023-10-23T02:56:12.212Z,8.10
2023-10-23T02:58:39.897Z,8.09
2023-10-23T03:01:16.096Z,8.09
2023-10-23T03:03:44.943Z,8.07
2023-10-23T03:06:13.186Z,7.92
2023-10-23T03:08:42.413Z,7.90
2023-10-23T03:11:10.787Z,7.88
2023-10-23T03:13:38.570Z,7.89
2023-10-23T03:16:06.830Z,7.84
2023-10-23T03:18:34.682Z,7.79
2023-10-23T03:21:03.426Z,7.78
2023-10-23T03:23:31.937Z,7.72
2023-10-23T03:26:01.245Z,7.74
2023-10-23T03:28:28.972Z,7.86
2023-10-23T03:30:56.784Z,7.78
2023-10-23T03:33:24.504Z,7.72
2023-10-23T03:35:52.311Z,7.74
2023-10-23T03:38:20.570Z,7.73
2023-10-23T03:40:59.786Z,7.76
2023-10-23T03:43:29.362Z,7.78
2023-10-23T03:45:57.693Z,7.70
2023-10-23T03:48:25.480Z,7.66
2023-10-23T03:50:53.276Z,7.71
2023-10-23T03:53:20.983Z,7.66
2023-10-23T03:55:48.673Z,7.75
2023-10-23T03:58:16.481Z,7.67
2023-10-23T04:00:45.554Z,7.65
2023-10-23T04:03:13.675Z,7.66
2023-10-23T04:05:42.064Z,7.63
2023-10-23T04:08:09.880Z,7.68
2023-10-23T04:10:37.582Z,7.51
2023-10-23T04:13:05.160Z,7.58
2023-10-23T04:15:32.956Z,7.49
2023-10-23T04:18:01.963Z,7.45
2023-10-23T04:20:30.255Z,7.41
2023-10-23T04:22:57.860Z,7.45
2023-10-23T04:25:25.574Z,7.42
2023-10-23T04:27:53.299Z,7.36
2023-10-23T04:30:21.268Z,7.32
2023-10-23T04:32:49.272Z,7.27
2023-10-23T04:35:18.376Z,7.19
2023-10-23T04:37:45.960Z,7.16
2023-10-23T04:40:14.372Z,7.14
2023-10-23T04:42:42.074Z,7.10
2023-10-23T04:45:10.193Z,7.05
2023-10-23T04:47:37.828Z,7.00
2023-10-23T04:50:08.474Z,7.05
2023-10-23T04:52:38.692Z,7.08
2023-10-23T04:55:07.592Z,7.05
2023-10-23T04:57:35.492Z,7.06
2023-10-23T05:00:04.265Z,7.03
2023-10-23T05:02:31.936Z,7.02
2023-10-23T05:04:59.594Z,7.05
2023-10-23T05:07:27.398Z,7.00
2023-10-23T05:09:56.410Z,6.96
2023-10-23T05:12:24.129Z,6.92
2023-10-23T05:14:52.497Z,6.90
2023-10-23T05:17:21.498Z,7.03
2023-10-23T05:19:49.276Z,7.00
2023-10-23T05:22:16.877Z,7.02
2023-10-23T05:24:46.780Z,6.96
2023-10-23T05:27:16.091Z,6.91
2023-10-23T05:29:43.790Z,6.93
2023-10-23T05:32:11.703Z,6.99
2023-10-23T05:34:39.353Z,6.89
2023-10-23T05:37:07.115Z,6.90
2023-10-23T05:39:34.896Z,6.97
2023-10-23T05:42:04.492Z,6.95
2023-10-23T05:44:33.689Z,6.92
2023-10-23T05:47:01.597Z,6.84
2023-10-23T05:49:29.993Z,6.86
2023-10-23T05:51:57.642Z,6.90
2023-10-23T05:54:26.468Z,6.91
2023-10-23T05:56:54.250Z,6.87
2023-10-23T05:59:21.873Z,6.86
2023-10-23T06:01:50.921Z,6.86
2023-10-23T06:04:18.643Z,6.84
2023-10-23T06:06:46.473Z,6.90
2023-10-23T06:09:14.606Z,6.88
2023-10-23T06:11:42.182Z,7.03
2023-10-23T06:14:09.994Z,7.06
2023-10-23T06:16:37.879Z,7.10
2023-10-23T06:19:07.936Z,7.11
2023-10-23T06:21:35.629Z,7.18
2023-10-23T06:24:04.723Z,7.20
2023-10-23T06:26:32.338Z,7.18
2023-10-23T06:29:00.266Z,7.12
2023-10-23T06:31:32.845Z,7.27
2023-10-23T06:34:00.789Z,7.32
2023-10-23T06:36:32.146Z,7.42
2023-10-23T06:39:00.043Z,7.32
2023-10-23T06:41:27.733Z,7.42
2023-10-23T06:43:56.460Z,7.39
2023-10-23T06:46:24.409Z,7.50
2023-10-23T06:48:52.204Z,7.62
2023-10-23T06:51:20.016Z,7.72
2023-10-23T06:53:49.020Z,7.66
2023-10-23T06:56:16.661Z,7.80
2023-10-23T06:58:44.315Z,7.79
2023-10-23T07:01:12.228Z,7.74
2023-10-23T07:03:40.105Z,7.97
2023-10-23T07:06:08.781Z,8.04
2023-10-23T07:08:38.417Z,8.13
2023-10-23T07:11:13.597Z,8.10
2023-10-23T07:13:41.601Z,8.17
2023-10-23T07:16:10.278Z,8.28
2023-10-23T07:18:38.065Z,8.22
2023-10-23T07:21:05.728Z,8.35
2023-10-23T07:23:33.423Z,8.41
2023-10-23T07:26:05.610Z,8.36
2023-10-23T07:28:36.443Z,8.55
2023-10-23T07:31:05.162Z,8.57
2023-10-23T07:33:33.185Z,8.74
2023-10-23T07:36:02.503Z,8.76
2023-10-23T07:38:30.291Z,9.17
2023-10-23T07:40:58.973Z,9.27
2023-10-23T07:43:27.564Z,9.48
2023-10-23T07:46:08.082Z,9.98
2023-10-23T07:48:40.568Z,10.58
2023-10-23T07:51:08.169Z,11.44
2023-10-23T07:53:36.502Z,11.79
2023-10-23T07:56:05.564Z,12.63
2023-10-23T07:58:33.528Z,13.05
2023-10-23T08:01:07.180Z,12.68
2023-10-23T08:03:35.787Z,12.88
2023-10-23T08:06:05.038Z,12.54
2023-10-23T08:08:35.267Z,12.37
2023-10-23T08:11:05.350Z,11.93
2023-10-23T08:13:33.283Z,12.07
2023-10-23T08:16:01.678Z,12.43
2023-10-23T08:18:38.994Z,12.67
2023-10-23T08:21:13.976Z,12.85
2023-10-23T08:23:42.426Z,12.92
2023-10-23T08:26:10.163Z,13.13
2023-10-23T08:31:16.621Z,12.55
2023-10-23T08:33:50.033Z,12.70
2023-10-23T08:36:17.750Z,12.04
2023-10-23T08:38:45.378Z,12.01
2023-10-23T08:41:13.549Z,12.04
2023-10-23T08:43:42.181Z,11.91
2023-10-23T08:46:10.360Z,11.54
2023-10-23T08:48:38.794Z,11.30
2023-10-23T08:51:16.377Z,11.64
2023-10-23T08:56:26.896Z,12.11
2023-10-23T08:59:01.217Z,12.15
2023-10-23T09:01:30.212Z,12.32
2023-10-23T09:04:02.901Z,12.51
2023-10-23T09:06:38.207Z,12.24
2023-10-23T09:09:07.361Z,12.10
2023-10-23T09:11:41.108Z,11.98
2023-10-23T09:14:13.292Z,11.98
2023-10-23T09:16:46.461Z,12.28
2023-10-23T09:19:32.656Z,12.47
2023-10-23T09:22:06.155Z,12.57
2023-10-23T09:24:34.159Z,12.58
2023-10-23T09:27:04.229Z,12.70
2023-10-23T09:29:34.052Z,12.81
2023-10-23T09:32:04.397Z,12.70
2023-10-23T09:34:40.348Z,12.84
2023-10-23T09:37:10.967Z,12.69
2023-10-23T09:39:40.489Z,12.41
2023-10-23T09:42:10.062Z,12.43
2023-10-23T09:44:40.226Z,12.55
2023-10-23T09:47:11.398Z,12.78
2023-10-23T09:49:42.793Z,13.14
2023-10-23T09:52:14.460Z,13.41
2023-10-23T09:54:45.460Z,13.40
2023-10-23T09:57:16.538Z,13.62
2023-10-23T09:59:49.896Z,13.94
2023-10-23T10:02:23.595Z,14.06
2023-10-23T10:04:58.403Z,13.71
2023-10-23T10:07:31.650Z,13.49
2023-10-23T10:10:01.319Z,13.17
2023-10-23T10:12:30.849Z,13.29
2023-10-23T10:15:00.539Z,13.48
2023-10-23T10:17:32.905Z,13.77
2023-10-23T10:20:03.449Z,13.87
2023-10-23T10:22:39.523Z,13.85
2023-10-23T10:25:17.478Z,13.98
2023-10-23T10:27:46.793Z,13.95
2023-10-23T10:30:42.365Z,14.25
2023-10-23T10:34:17.925Z,14.34
2023-10-23T10:36:01.797Z,13.89
2023-10-23T10:38:34.169Z,14.02
2023-10-23T10:41:14.863Z,14.22
2023-10-23T10:43:47.045Z,14.35
2023-10-23T10:46:18.897Z,14.50
2023-10-23T10:48:55.698Z,14.56
2023-10-23T10:51:26.085Z,14.67
2023-10-23T10:56:49.484Z,14.61
2023-10-23T10:59:24.508Z,14.34
2023-10-23T11:02:04.694Z,14.54
2023-10-23T11:04:39.629Z,14.41
2023-10-23T11:07:16.429Z,14.75
2023-10-23T11:09:48.266Z,14.71
2023-10-23T11:12:16.144Z,14.82
2023-10-23T11:14:47.394Z,14.97
2023-10-23T11:17:16.615Z,14.82
2023-10-23T11:19:45.225Z,14.88
2023-10-23T11:22:14.812Z,14.85
2023-10-23T11:24:50.810Z,15.01
2023-10-23T11:27:18.597Z,15.20
2023-10-23T11:29:48.180Z,15.39
2023-10-23T11:32:19.429Z,15.39
2023-10-23T11:34:49.041Z,15.07
2023-10-23T11:37:17.256Z,15.11
2023-10-23T11:39:45.206Z,14.96
2023-10-23T11:42:34.101Z,15.21
2023-10-23T11:45:02.337Z,15.46
2023-10-23T11:47:30.409Z,15.10
2023-10-23T11:49:59.452Z,15.07
2023-10-23T11:52:34.975Z,15.22
2023-10-23T11:55:02.841Z,15.15
2023-10-23T11:57:37.078Z,15.12
2023-10-23T12:00:08.542Z,14.73
2023-10-23T12:02:39.947Z,14.94
2023-10-23T12:05:11.967Z,15.07
2023-10-23T12:07:48.947Z,15.27
2023-10-23T12:10:19.190Z,15.68
2023-10-23T12:12:54.350Z,15.82
2023-10-23T12:15:25.713Z,15.93
2023-10-23T12:18:03.905Z,15.97
2023-10-23T12:20:33.271Z,15.91
2023-10-23T12:23:01.423Z,16.19
2023-10-23T12:25:31.910Z,15.93
2023-10-23T12:28:01.585Z,16.25
2023-10-23T12:30:31.910Z,16.08
2023-10-23T12:33:16.752Z,15.68
2023-10-23T12:35:48.551Z,15.94
2023-10-23T12:38:24.751Z,15.95
2023-10-23T12:40:52.709Z,15.72
2023-10-23T12:43:22.120Z,15.94
2023-10-23T12:45:50.471Z,16.14
2023-10-23T12:48:18.892Z,16.12
2023-10-23T12:50:54.311Z,15.75
2023-10-23T12:53:24.044Z,15.45
2023-10-23T12:55:51.707Z,15.72
2023-10-23T12:58:21.134Z,15.70
2023-10-23T13:00:51.125Z,16.00
2023-10-23T13:03:18.925Z,15.73
2023-10-23T13:05:48.455Z,15.73
2023-10-23T13:08:37.279Z,15.68
2023-10-23T13:11:07.807Z,15.72
2023-10-23T13:13:38.998Z,15.68
2023-10-23T13:16:09.323Z,15.56
2023-10-23T13:18:53.262Z,15.59
2023-10-23T13:21:31.446Z,15.48
2023-10-23T13:24:06.382Z,15.41
2023-10-23T13:26:34.431Z,15.63
2023-10-23T13:29:03.500Z,15.56
2023-10-23T13:31:31.249Z,15.40
2023-10-23T13:34:00.763Z,15.60
2023-10-23T13:36:28.486Z,15.28
2023-10-23T13:38:56.400Z,15.43
2023-10-23T13:41:25.232Z,15.49
2023-10-23T13:43:52.976Z,15.61
2023-10-23T13:46:23.685Z,15.39
2023-10-23T13:48:52.600Z,15.51
2023-10-23T13:51:23.386Z,15.46
2023-10-23T13:53:51.581Z,15.46
2023-10-23T13:56:19.419Z,15.48
2023-10-23T13:58:47.812Z,15.45
2023-10-23T14:01:16.885Z,15.40
2023-10-23T14:03:55.999Z,15.34
2023-10-23T14:06:28.914Z,15.33
2023-10-23T14:09:42.057Z,15.22
2023-10-23T14:12:01.194Z,15.21
2023-10-23T14:14:30.606Z,15.08
2023-10-23T14:16:59.122Z,14.81
2023-10-23T14:19:42.304Z,14.96
2023-10-23T14:22:15.573Z,14.98
2023-10-23T14:24:43.453Z,15.00
2023-10-23T14:27:11.564Z,15.02
2023-10-23T14:29:40.523Z,14.94
2023-10-23T14:32:08.824Z,15.00
2023-10-23T14:34:39.147Z,15.04
2023-10-23T14:37:15.403Z,15.00
2023-10-23T14:39:43.529Z,15.01
2023-10-23T14:42:16.003Z,14.89
2023-10-23T14:44:43.783Z,14.80
2023-10-23T14:47:13.382Z,14.65
2023-10-23T14:49:42.567Z,14.67
2023-10-23T14:52:10.700Z,14.70
2023-10-23T14:54:39.649Z,14.71
2023-10-23T14:57:08.659Z,14.70
2023-10-23T14:59:36.658Z,14.76
2023-10-23T15:02:09.619Z,14.77
2023-10-23T15:04:39.252Z,14.82
2023-10-23T15:07:08.570Z,14.72
2023-10-23T15:09:36.728Z,14.52
2023-10-23T15:12:07.077Z,14.53
2023-10-23T15:14:35.184Z,14.51
2023-10-23T15:17:04.005Z,14.50
2023-10-23T15:19:33.021Z,14.44
2023-10-23T15:22:12.922Z,14.59
2023-10-23T15:27:42.995Z,14.50
2023-10-23T15:30:11.754Z,14.39
2023-10-23T15:32:39.510Z,14.33
2023-10-23T15:35:09.999Z,14.15
2023-10-23T15:37:38.317Z,13.98
2023-10-23T15:40:14.305Z,13.94
2023-10-23T15:42:44.307Z,14.00
2023-10-23T15:45:13.618Z,14.01
2023-10-23T15:47:41.433Z,13.83
2023-10-23T15:50:10.062Z,13.80
2023-10-23T15:52:37.831Z,13.85
2023-10-23T15:55:07.446Z,13.73
2023-10-23T15:57:35.985Z,13.74
2023-10-23T16:00:13.688Z,13.61
2023-10-23T16:02:44.085Z,13.59
2023-10-23T16:05:12.792Z,13.57
2023-10-23T16:07:40.797Z,13.56
2023-10-23T16:10:13.055Z,13.58
2023-10-23T16:12:41.109Z,13.63
2023-10-23T16:15:10.917Z,13.61
2023-10-23T16:17:40.584Z,13.58
2023-10-23T16:20:09.591Z,13.63
2023-10-23T16:22:42.142Z,13.63
2023-10-23T16:25:11.624Z,13.62
2023-10-23T16:27:39.503Z,13.64
2023-10-23T16:30:12.984Z,13.72
2023-10-23T16:32:41.969Z,13.67
2023-10-23T16:35:09.948Z,13.59
2023-10-23T16:37:37.659Z,13.66
2023-10-23T16:40:09.601Z,13.66
2023-10-23T16:42:39.365Z,13.71
2023-10-23T16:49:05.571Z,13.66
2023-10-23T16:51:33.437Z,13.57
2023-10-23T16:54:09.279Z,13.53
2023-10-23T16:56:57.522Z,13.54
2023-10-23T17:00:01.521Z,13.49
2023-10-23T17:02:29.621Z,13.41
2023-10-23T17:04:58.057Z,13.41
2023-10-23T17:07:26.366Z,13.36
2023-10-23T17:09:54.378Z,13.36
2023-10-23T17:12:22.147Z,13.37
2023-10-23T17:14:51.711Z,13.47
2023-10-23T17:17:21.514Z,13.54
2023-10-23T17:20:12.443Z,13.51
2023-10-23T17:22:40.694Z,13.46
2023-10-23T17:25:10.653Z,13.31
2023-10-23T17:27:38.628Z,13.38
2023-10-23T17:30:10.523Z,13.30
2023-10-23T17:32:38.311Z,13.30
2023-10-23T17:35:06.257Z,13.39
2023-10-23T17:37:34.117Z,13.30
2023-10-23T17:40:02.847Z,13.31
2023-10-23T17:42:30.588Z,13.36
2023-10-23T17:45:00.975Z,13.32
2023-10-23T17:47:32.144Z,13.23
2023-10-23T17:50:00.202Z,13.21
2023-10-23T17:52:28.282Z,13.12
2023-10-23T17:54:57.588Z,13.14
2023-10-23T17:57:27.313Z,13.25
2023-10-23T17:59:54.938Z,13.23
2023-10-23T18:02:22.715Z,13.19
2023-10-23T18:04:54.297Z,13.11
2023-10-23T18:07:22.976Z,13.14
2023-10-23T18:09:50.917Z,13.01
2023-10-23T18:12:31.048Z,12.86
2023-10-23T18:15:06.526Z,12.74
2023-10-23T18:17:34.403Z,12.65
2023-10-23T18:20:04.275Z,12.72
2023-10-23T18:22:32.655Z,12.65
2023-10-23T18:25:00.772Z,12.61
2023-10-23T18:27:28.776Z,12.69
2023-10-23T18:29:57.454Z,12.69
2023-10-23T18:32:26.568Z,12.73
2023-10-23T18:34:57.428Z,12.73
2023-10-23T18:37:28.091Z,12.86
2023-10-23T18:39:57.236Z,12.86
2023-10-23T18:42:38.155Z,12.87
2023-10-23T18:45:08.402Z,12.88
2023-10-23T18:47:51.255Z,12.79
2023-10-23T18:55:45.514Z,12.78
2023-10-23T18:58:14.494Z,12.77
2023-10-23T19:00:42.455Z,12.82
2023-10-23T19:03:10.883Z,12.78
2023-10-23T19:05:42.020Z,12.82
2023-10-23T19:08:12.078Z,12.70
2023-10-23T19:10:40.354Z,12.69
2023-10-23T19:13:08.815Z,12.57
2023-10-23T19:15:36.948Z,12.52
2023-10-23T19:18:04.992Z,12.46
2023-10-23T19:20:32.836Z,12.39
2023-10-23T19:23:00.556Z,12.36
2023-10-23T19:25:29.765Z,12.36
2023-10-23T19:27:58.763Z,12.41
2023-10-23T19:30:28.029Z,12.44
2023-10-23T19:32:58.471Z,12.51
2023-10-23T19:35:27.095Z,12.52
2023-10-23T19:37:55.528Z,12.41
2023-10-23T19:40:30.311Z,12.36
2023-10-23T19:43:14.222Z,12.38
2023-10-23T19:45:42.947Z,12.32
2023-10-23T19:48:13.088Z,12.33
2023-10-23T19:50:45.693Z,12.34
2023-10-23T19:53:16.577Z,12.36
2023-10-23T19:55:47.424Z,12.43
2023-10-23T19:58:18.749Z,12.43
2023-10-23T20:00:46.743Z,12.45
2023-10-23T20:03:16.483Z,12.54
2023-10-23T20:05:44.347Z,12.58
2023-10-23T20:08:12.367Z,12.49
2023-10-23T20:10:41.719Z,12.22
2023-10-23T20:13:09.570Z,12.21
2023-10-23T20:15:38.828Z,12.26
2023-10-23T20:18:08.563Z,12.24
2023-10-23T20:20:39.157Z,12.20
2023-10-23T20:23:07.356Z,12.19
2023-10-23T20:25:35.806Z,12.17
2023-10-23T20:28:05.290Z,12.11
2023-10-23T20:30:34.389Z,12.13
2023-10-23T20:33:03.972Z,12.09
2023-10-23T20:35:32.020Z,12.10
2023-10-23T20:37:59.928Z,12.11
2023-10-23T20:40:27.897Z,12.11
2023-10-23T20:42:55.578Z,12.08
2023-10-23T20:45:23.475Z,12.14
2023-10-23T20:47:51.340Z,12.10
2023-10-23T20:50:21.943Z,12.15
2023-10-23T20:52:49.836Z,12.10
2023-10-23T20:55:17.654Z,12.21
2023-10-23T20:57:45.351Z,12.22
2023-10-23T21:00:14.119Z,12.12
2023-10-23T21:02:42.152Z,12.24
2023-10-23T21:05:10.313Z,12.21
2023-10-23T21:07:39.625Z,12.35
2023-10-23T21:10:09.187Z,12.29
2023-10-23T21:12:38.071Z,12.21
2023-10-23T21:15:06.495Z,12.22
2023-10-23T21:17:35.199Z,12.27
2023-10-23T21:20:02.908Z,12.32
2023-10-23T21:22:31.312Z,12.48
2023-10-23T21:25:00.380Z,12.50
2023-10-23T21:27:28.266Z,12.54
2023-10-23T21:29:58.113Z,12.54
2023-10-23T21:32:25.798Z,12.55
2023-10-23T21:34:53.528Z,12.53
2023-10-23T21:37:21.365Z,12.52
2023-10-23T21:39:49.193Z,12.52
2023-10-23T21:42:18.201Z,12.57
2023-10-23T21:44:45.855Z,12.58
2023-10-23T21:47:14.934Z,12.55
2023-10-23T21:49:42.733Z,12.54
2023-10-23T21:52:12.558Z,12.52
2023-10-23T21:54:41.033Z,12.45
2023-10-23T21:57:21.695Z,12.45
2023-10-23T21:59:52.902Z,12.41
2023-10-23T22:02:20.980Z,12.36
2023-10-23T22:04:49.710Z,12.33
2023-10-23T22:07:17.862Z,12.34
2023-10-23T22:09:45.999Z,12.37
2023-10-23T22:12:15.010Z,12.41
2023-10-23T22:14:43.240Z,12.48
2023-10-23T22:17:12.360Z,12.54
2023-10-23T22:19:40.412Z,12.56
2023-10-23T22:22:08.051Z,12.61
2023-10-23T22:24:35.728Z,12.60
2023-10-23T22:27:03.609Z,12.58
2023-10-23T22:29:31.301Z,12.62
2023-10-23T22:31:59.326Z,12.62
2023-10-23T22:34:28.635Z,12.63
2023-10-23T22:38:01.925Z,12.61
2023-10-23T22:39:44.021Z,12.57
2023-10-23T22:42:11.836Z,12.54
2023-10-23T22:44:39.845Z,12.57
2023-10-23T22:47:07.876Z,12.57
2023-10-23T22:49:37.599Z,12.57
2023-10-23T22:52:06.353Z,12.53
2023-10-23T22:54:34.711Z,12.56
2023-10-23T22:57:05.707Z,12.58
2023-10-23T22:59:34.146Z,12.61
2023-10-23T23:02:02.726Z,12.62
2023-10-23T23:04:31.276Z,12.65
2023-10-23T23:07:01.954Z,12.69
2023-10-23T23:09:30.248Z,12.65
2023-10-23T23:11:58.455Z,12.67
2023-10-23T23:14:26.674Z,12.65
2023-10-23T23:17:01.783Z,12.65
2023-10-23T23:19:31.786Z,12.69
2023-10-23T23:22:09.408Z,12.70
2023-10-23T23:24:38.121Z,12.76
2023-10-23T23:27:06.478Z,12.76
2023-10-23T23:29:35.326Z,12.72
2023-10-23T23:32:03.367Z,12.66
2023-10-23T23:34:31.481Z,12.72
2023-10-23T23:36:59.313Z,12.72
2023-10-23T23:39:28.573Z,12.74
2023-10-23T23:41:56.392Z,12.80
2023-10-23T23:44:24.161Z,12.78
2023-10-23T23:46:51.850Z,12.81
2023-10-23T23:49:19.597Z,12.83
2023-10-23T23:51:47.347Z,12.80
2023-10-23T23:54:14.965Z,12.80
2023-10-23T23:56:46.549Z,12.82
2023-10-23T23:59:14.173Z,12.87
